createdAt,value
2022-12-25T00:07:17.592Z,100740.69
2022-12-25T00:17:20.566Z,100742.31
2022-12-25T00:27:24.965Z,100731.94
2022-12-25T00:37:28.191Z,100735.47
2022-12-25T00:47:32.961Z,100756.81
2022-12-25T00:57:35.922Z,100737.31
2022-12-25T01:07:40.428Z,100736.28
2022-12-25T01:17:44.291Z,100741.31
2022-12-25T01:27:48.918Z,100736.25
2022-12-25T01:37:52.313Z,100746.53
2022-12-25T01:47:56.700Z,100756.75
2022-12-25T01:57:59.832Z,100753.34
2022-12-25T02:08:09.645Z,100753.38
2022-12-25T02:18:19.128Z,100766.19
2022-12-25T02:28:29.188Z,100758.41
2022-12-25T02:38:36.931Z,100758.44
2022-12-25T02:49:04.592Z,100767.09
2022-12-25T02:59:26.538Z,100755.22
2022-12-25T03:09:55.112Z,100770.53
2022-12-25T03:20:15.540Z,100755.97
2022-12-25T03:30:37.972Z,100745.59
2022-12-25T03:41:10.514Z,100721.81
2022-12-25T03:51:38.629Z,100718.53
2022-12-25T04:01:59.386Z,100711.50
2022-12-25T04:12:21.139Z,100708.00
2022-12-25T04:22:41.710Z,100707.97
2022-12-25T04:33:11.913Z,100717.47
2022-12-25T04:43:15.835Z,100720.88
2022-12-25T04:53:20.913Z,100721.69
2022-12-25T05:03:25.320Z,100714.69
2022-12-25T05:13:29.743Z,100695.81
2022-12-25T05:23:33.154Z,100689.09
2022-12-25T05:33:37.509Z,100677.91
2022-12-25T05:43:40.735Z,100663.34
2022-12-25T05:53:45.293Z,100641.97
2022-12-25T06:03:48.575Z,100657.34
2022-12-25T06:13:54.346Z,100634.91
2022-12-25T06:23:57.389Z,100631.50
2022-12-25T06:34:01.789Z,100610.97
2022-12-25T06:44:05.132Z,100591.44
2022-12-25T06:54:09.998Z,100584.53
2022-12-25T07:04:17.024Z,100565.00
2022-12-25T07:14:24.719Z,100547.00
2022-12-25T07:24:28.003Z,100512.78
2022-12-25T07:34:32.379Z,100524.66
2022-12-25T07:44:35.382Z,100521.19
2022-12-25T07:54:39.861Z,100540.91
2022-12-25T08:04:43.227Z,100524.44
2022-12-25T08:14:47.543Z,100500.59
2022-12-25T08:24:50.574Z,100520.41
2022-12-25T08:34:54.862Z,100518.50
2022-12-25T08:44:57.935Z,100486.88
2022-12-25T08:55:02.366Z,100506.66
2022-12-25T09:05:05.847Z,100484.69
2022-12-25T09:15:12.070Z,100461.50
2022-12-25T09:25:15.354Z,100474.88
2022-12-25T09:35:19.839Z,100460.28
2022-12-25T09:45:28.338Z,100470.44
2022-12-25T09:55:37.357Z,100485.06
2022-12-25T10:05:55.848Z,100513.22
2022-12-25T10:16:15.865Z,100512.34
2022-12-25T10:26:21.538Z,100503.72
2022-12-25T10:36:29.949Z,100482.22
2022-12-25T10:46:33.186Z,100459.91
2022-12-25T10:56:37.992Z,100451.31
2022-12-25T11:06:41.032Z,100422.91
2022-12-25T11:16:45.426Z,100370.44
2022-12-25T11:26:51.293Z,100351.94
2022-12-25T11:36:55.750Z,100350.84
2022-12-25T11:47:08.643Z,100310.19
2022-12-25T11:57:14.194Z,100306.66
2022-12-25T12:07:23.899Z,100277.41
2022-12-25T12:17:28.485Z,100284.91
2022-12-25T12:27:37.024Z,100265.16
2022-12-25T12:37:42.981Z,100273.66
2022-12-25T12:47:49.517Z,100262.22
2022-12-25T12:58:00.320Z,100264.72
2022-12-25T13:08:13.227Z,100248.25
2022-12-25T13:18:18.192Z,100253.38
2022-12-25T13:28:26.450Z,100240.25
2022-12-25T13:38:31.072Z,100229.13
2022-12-25T13:48:34.389Z,100246.06
2022-12-25T13:58:40.109Z,100239.91
2022-12-25T14:08:43.288Z,100232.06
2022-12-25T14:18:58.163Z,100244.25
2022-12-25T14:29:16.516Z,100252.69
2022-12-25T14:39:39.667Z,100236.44
2022-12-25T14:49:43.817Z,100238.34
2022-12-25T14:59:48.294Z,100217.63
2022-12-25T15:10:10.524Z,100217.31
2022-12-25T15:20:15.794Z,100217.50
2022-12-25T15:30:18.984Z,100219.53
2022-12-25T15:40:23.429Z,100207.56
2022-12-25T15:50:26.569Z,100195.25
2022-12-25T16:00:32.477Z,100191.78
2022-12-25T16:10:38.903Z,100191.56
2022-12-25T16:20:43.752Z,100192.28
2022-12-25T16:30:47.322Z,100190.69
2022-12-25T16:40:56.604Z,100193.81
2022-12-25T16:50:59.620Z,100210.28
2022-12-25T17:01:08.933Z,100205.34
2022-12-25T17:11:12.836Z,100218.91
2022-12-25T17:21:17.244Z,100203.09
2022-12-25T17:31:20.921Z,100208.75
2022-12-25T17:41:25.347Z,100204.16
2022-12-25T17:51:30.380Z,100200.75
2022-12-25T18:01:35.616Z,100191.78
2022-12-25T18:11:40.731Z,100184.63
2022-12-25T18:21:45.553Z,100180.03
2022-12-25T18:31:49.056Z,100174.09
2022-12-25T18:42:11.175Z,100162.91
2022-12-25T18:52:47.970Z,100141.28
2022-12-25T19:02:38.741Z,100124.91
2022-12-25T19:12:41.849Z,100135.78
2022-12-25T19:22:46.198Z,100157.31
2022-12-25T19:32:49.207Z,100150.78
2022-12-25T19:42:54.164Z,100169.22
2022-12-25T19:52:57.323Z,100185.88
2022-12-25T20:03:01.928Z,100189.34
2022-12-25T20:13:05.342Z,100198.06
2022-12-25T20:23:10.140Z,100194.97
2022-12-25T20:33:13.192Z,100209.31
2022-12-25T20:43:17.610Z,100196.50
2022-12-25T20:53:21.592Z,100213.25
2022-12-25T21:03:26.109Z,100201.59
2022-12-25T21:13:31.701Z,100197.06
2022-12-25T21:23:38.066Z,100211.91
2022-12-25T21:33:53.381Z,100231.78
2022-12-25T21:43:58.412Z,100247.94
2022-12-25T21:54:02.319Z,100261.06
2022-12-25T22:04:09.285Z,100256.69
2022-12-25T22:14:52.548Z,100263.44
2022-12-25T22:24:59.986Z,100271.50
2022-12-25T22:35:03.353Z,100290.03
2022-12-25T22:45:08.895Z,100283.09
2022-12-25T22:55:12.223Z,100277.56
2022-12-25T23:05:16.627Z,100286.00
2022-12-25T23:15:19.959Z,100284.25
2022-12-25T23:25:42.262Z,100284.94
2022-12-25T23:35:45.346Z,100281.09
2022-12-25T23:45:49.768Z,100273.53
2022-12-25T23:55:55.798Z,100267.63
